Strona główna
METAR-TAF:

METAR-TAF

Lotnisko :

Port lotniczy Szawle

Szawle, Litwa

Szerokość geograficzna: 55-53-38N, Długość geograficzna: 023-23-42E, wysokość: 135 m

Aktualna obserwacja pogody

Raport powstał 34 minut temu, godzina 08:20 UTC
Wiatr 8 kt od północny wschód, zmienny między północno-północny wschód i wschód
Temperatura 24°C
Wilgotność 69%
Ciśnienie 1012 hPa
Widzialność 10 km lub więcej
Brak chmur poniżej 1500 m i brak chmur cumulonimbus

METAR: EYSA 160820Z 05008KT 020V080 CAVOK 24/18 Q1012 BLU NOSIG

czas: 11:54 (08:54 UTC)

Prognoza

Raport powstał 54 minut temu, godzina 08:00 UTC
Prognoza ważna od 16 godzina 09 UTC do 16 godzina 18 UTC
Wiatr 15 kt od północno-północny wschód
Widzialność: 9000 m
Przerywane chmury na wysokości 3000 ft
Przejściowo
od 16 godzina 09 UTC do 16 godzina 15 UTC
Widzialność: 3000 m
Rozproszone chmury na wysokości 500 ft
Przerywane chmury na wysokości 2000 ft, Cumulonimbus.
burza, deszcz

TAF: EYSA 160800Z 1609/1618 03015KT 9000 BKN030 TEMPO 1609/1615 3000 TSRA SCT005 BKN020CB

Obserwacja i prognoza pogody dla ponad 4000 lotnisk (raport METAR i TAF).

Dostępne stacje oznaczono żółtymi i czerwonymi punktami na mapie.

Najedź kursorem aby zobaczyć nazwę stacji.

Kliknij aby zobaczyć obserwacje i prognozy pogody.

Aby zmienić mapę: kliknij na zielony przycisk z czarnym krzyżykiem, aby powiększyć; na zielony przycisk z myślnikiem, aby pomniejszyć; na zielone strzałki, aby przejść do map sąsiednich.


METAR-TAF: